sensor_id;sensor_type;location;lat;lon;timestamp;pressure;altitude;pressure_sealevel;temperature;humidity
26823;BME280;14852;51.910;8.878;2023-03-29T00:00:44;100016.34;;;9.12;43.44
26823;BME280;14852;51.910;8.878;2023-03-29T00:03:10;100020.13;;;9.04;43.96
26823;BME280;14852;51.910;8.878;2023-03-29T00:05:38;100015.91;;;9.02;44.04
26823;BME280;14852;51.910;8.878;2023-03-29T00:08:06;100012.53;;;9.00;43.73
26823;BME280;14852;51.910;8.878;2023-03-29T00:10:33;100010.66;;;9.03;43.92
26823;BME280;14852;51.910;8.878;2023-03-29T00:13:01;100002.81;;;9.05;44.02
26823;BME280;14852;51.910;8.878;2023-03-29T00:15:27;99992.56;;;9.02;44.41
26823;BME280;14852;51.910;8.878;2023-03-29T00:17:52;99997.13;;;8.97;44.11
26823;BME280;14852;51.910;8.878;2023-03-29T00:20:18;99987.59;;;8.97;44.57
26823;BME280;14852;51.910;8.878;2023-03-29T00:22:44;99988.50;;;8.96;44.59
26823;BME280;14852;51.910;8.878;2023-03-29T00:25:12;99982.34;;;8.99;44.43
26823;BME280;14852;51.910;8.878;2023-03-29T00:27:38;99982.16;;;9.03;44.55
26823;BME280;14852;51.910;8.878;2023-03-29T00:30:06;99982.75;;;9.10;44.38
26823;BME280;14852;51.910;8.878;2023-03-29T00:32:33;99981.06;;;9.09;44.32
26823;BME280;14852;51.910;8.878;2023-03-29T00:34:59;99969.84;;;9.08;44.55
26823;BME280;14852;51.910;8.878;2023-03-29T00:37:30;99968.94;;;9.10;44.70
26823;BME280;14852;51.910;8.878;2023-03-29T00:39:56;99972.50;;;9.07;44.58
26823;BME280;14852;51.910;8.878;2023-03-29T00:42:24;99965.63;;;9.06;44.82
26823;BME280;14852;51.910;8.878;2023-03-29T00:47:38;99971.91;;;9.00;45.03
26823;BME280;14852;51.910;8.878;2023-03-29T00:50:22;99965.13;;;8.98;45.31
26823;BME280;14852;51.910;8.878;2023-03-29T00:53:02;99967.00;;;8.94;45.42
26823;BME280;14852;51.910;8.878;2023-03-29T00:55:35;99972.44;;;8.88;45.25
26823;BME280;14852;51.910;8.878;2023-03-29T00:58:05;99964.72;;;8.87;45.58
26823;BME280;14852;51.910;8.878;2023-03-29T01:00:41;99960.41;;;8.87;45.63
26823;BME280;14852;51.910;8.878;2023-03-29T01:03:12;99955.22;;;8.87;45.59
26823;BME280;14852;51.910;8.878;2023-03-29T01:05:43;99954.38;;;8.87;45.88
26823;BME280;14852;51.910;8.878;2023-03-29T01:08:36;99954.38;;;8.87;46.27
26823;BME280;14852;51.910;8.878;2023-03-29T01:11:50;99949.31;;;8.84;45.96
26823;BME280;14852;51.910;8.878;2023-03-29T01:14:51;99931.34;;;8.79;45.95
26823;BME280;14852;51.910;8.878;2023-03-29T01:17:19;99925.53;;;8.74;45.98
26823;BME280;14852;51.910;8.878;2023-03-29T01:26:19;99907.19;;;8.58;46.49
26823;BME280;14852;51.910;8.878;2023-03-29T01:29:00;99907.25;;;8.57;46.58
26823;BME280;14852;51.910;8.878;2023-03-29T01:31:48;99894.53;;;8.52;46.90
26823;BME280;14852;51.910;8.878;2023-03-29T01:34:29;99896.38;;;8.49;46.70
26823;BME280;14852;51.910;8.878;2023-03-29T01:37:22;99890.47;;;8.45;47.08
26823;BME280;14852;51.910;8.878;2023-03-29T01:39:52;99884.84;;;8.35;47.21
26823;BME280;14852;51.910;8.878;2023-03-29T01:42:46;99866.78;;;8.34;47.27
26823;BME280;14852;51.910;8.878;2023-03-29T01:48:03;99867.06;;;8.26;47.33
26823;BME280;14852;51.910;8.878;2023-03-29T01:50:57;99867.25;;;8.22;47.82
26823;BME280;14852;51.910;8.878;2023-03-29T01:56:09;99867.53;;;8.16;47.61
26823;BME280;14852;51.910;8.878;2023-03-29T01:58:41;99867.56;;;8.14;47.81
26823;BME280;14852;51.910;8.878;2023-03-29T02:01:11;99861.56;;;8.14;47.83
26823;BME280;14852;51.910;8.878;2023-03-29T02:03:43;99858.00;;;8.16;47.78
26823;BME280;14852;51.910;8.878;2023-03-29T02:06:15;99846.75;;;8.17;48.08
26823;BME280;14852;51.910;8.878;2023-03-29T02:08:44;99842.47;;;8.16;47.93
26823;BME280;14852;51.910;8.878;2023-03-29T02:11:12;99836.53;;;8.14;48.30
26823;BME280;14852;51.910;8.878;2023-03-29T02:13:39;99840.69;;;8.18;47.88
26823;BME280;14852;51.910;8.878;2023-03-29T02:16:10;99832.59;;;8.26;48.17
26823;BME280;14852;51.910;8.878;2023-03-29T02:18:40;99830.84;;;8.26;48.04
26823;BME280;14852;51.910;8.878;2023-03-29T02:21:08;99829.16;;;8.25;48.23
26823;BME280;14852;51.910;8.878;2023-03-29T02:23:40;99818.88;;;8.24;48.17
26823;BME280;14852;51.910;8.878;2023-03-29T02:26:10;99819.88;;;8.20;48.28
26823;BME280;14852;51.910;8.878;2023-03-29T02:28:39;99813.97;;;8.18;48.58
26823;BME280;14852;51.910;8.878;2023-03-29T02:31:27;99807.88;;;8.19;48.81
26823;BME280;14852;51.910;8.878;2023-03-29T02:34:10;99803.72;;;8.15;48.83
26823;BME280;14852;51.910;8.878;2023-03-29T02:36:40;99790.19;;;8.08;48.92
26823;BME280;14852;51.910;8.878;2023-03-29T02:39:09;99799.78;;;8.06;49.04
26823;BME280;14852;51.910;8.878;2023-03-29T02:41:39;99797.03;;;8.09;49.10
26823;BME280;14852;51.910;8.878;2023-03-29T02:44:13;99785.72;;;8.12;48.93
26823;BME280;14852;51.910;8.878;2023-03-29T02:46:41;99788.25;;;8.13;48.92
26823;BME280;14852;51.910;8.878;2023-03-29T02:49:12;99785.53;;;8.16;48.90
26823;BME280;14852;51.910;8.878;2023-03-29T02:51:38;99796.81;;;8.15;48.95
26823;BME280;14852;51.910;8.878;2023-03-29T02:54:17;99791.63;;;8.15;49.02
26823;BME280;14852;51.910;8.878;2023-03-29T02:56:47;99790.97;;;8.10;49.61
26823;BME280;14852;51.910;8.878;2023-03-29T02:59:16;99801.25;;;8.12;49.24
26823;BME280;14852;51.910;8.878;2023-03-29T03:01:44;99791.75;;;8.12;49.39
26823;BME280;14852;51.910;8.878;2023-03-29T03:04:11;99789.03;;;8.15;49.04
26823;BME280;14852;51.910;8.878;2023-03-29T03:06:37;99783.91;;;8.14;49.02
26823;BME280;14852;51.910;8.878;2023-03-29T03:09:05;99781.38;;;8.12;49.47
26823;BME280;14852;51.910;8.878;2023-03-29T03:11:34;99780.56;;;8.12;49.22
26823;BME280;14852;51.910;8.878;2023-03-29T03:14:00;99775.44;;;8.10;49.18
26823;BME280;14852;51.910;8.878;2023-03-29T03:16:27;99767.72;;;8.09;49.58
26823;BME280;14852;51.910;8.878;2023-03-29T03:18:53;99769.41;;;8.10;49.61
26823;BME280;14852;51.910;8.878;2023-03-29T03:21:21;99760.69;;;8.12;49.40
26823;BME280;14852;51.910;8.878;2023-03-29T03:23:48;99755.44;;;8.14;49.46
26823;BME280;14852;51.910;8.878;2023-03-29T03:26:15;99759.59;;;8.18;49.57
26823;BME280;14852;51.910;8.878;2023-03-29T03:28:43;99756.22;;;8.16;49.73
26823;BME280;14852;51.910;8.878;2023-03-29T03:31:32;99747.56;;;8.17;49.26
26823;BME280;14852;51.910;8.878;2023-03-29T03:34:33;99749.25;;;8.18;49.46
26823;BME280;14852;51.910;8.878;2023-03-29T03:37:00;99738.13;;;8.16;49.56
26823;BME280;14852;51.910;8.878;2023-03-29T03:39:28;99743.16;;;8.19;49.50
26823;BME280;14852;51.910;8.878;2023-03-29T03:41:54;99736.09;;;8.22;49.61
26823;BME280;14852;51.910;8.878;2023-03-29T03:44:20;99732.59;;;8.23;49.70
26823;BME280;14852;51.910;8.878;2023-03-29T03:46:55;99737.66;;;8.26;49.44
26823;BME280;14852;51.910;8.878;2023-03-29T03:49:20;99739.28;;;8.29;49.66
26823;BME280;14852;51.910;8.878;2023-03-29T03:51:47;99742.63;;;8.31;49.34
26823;BME280;14852;51.910;8.878;2023-03-29T03:54:13;99735.66;;;8.33;49.37
26823;BME280;14852;51.910;8.878;2023-03-29T03:57:08;99742.34;;;8.39;49.44
26823;BME280;14852;51.910;8.878;2023-03-29T03:59:41;99734.50;;;8.40;49.10
26823;BME280;14852;51.910;8.878;2023-03-29T04:02:10;99730.09;;;8.42;49.39
26823;BME280;14852;51.910;8.878;2023-03-29T04:04:37;99733.38;;;8.46;49.20
26823;BME280;14852;51.910;8.878;2023-03-29T04:07:11;99725.53;;;8.47;49.19
26823;BME280;14852;51.910;8.878;2023-03-29T04:10:10;99729.81;;;8.48;49.01
26823;BME280;14852;51.910;8.878;2023-03-29T04:12:46;99722.13;;;8.47;49.25
26823;BME280;14852;51.910;8.878;2023-03-29T04:15:12;99722.06;;;8.48;49.53
26823;BME280;14852;51.910;8.878;2023-03-29T04:17:43;99724.63;;;8.48;49.35
26823;BME280;14852;51.910;8.878;2023-03-29T04:20:32;99725.47;;;8.49;49.11
26823;BME280;14852;51.910;8.878;2023-03-29T04:22:59;99717.66;;;8.50;49.70
26823;BME280;14852;51.910;8.878;2023-03-29T04:25:26;99722.00;;;8.50;49.33
26823;BME280;14852;51.910;8.878;2023-03-29T04:28:14;99723.75;;;8.49;49.35
26823;BME280;14852;51.910;8.878;2023-03-29T04:31:00;99721.16;;;8.49;49.23
26823;BME280;14852;51.910;8.878;2023-03-29T04:33:35;99722.00;;;8.50;49.45
26823;BME280;14852;51.910;8.878;2023-03-29T04:36:00;99728.97;;;8.48;49.54
26823;BME280;14852;51.910;8.878;2023-03-29T04:38:26;99725.47;;;8.49;49.63
26823;BME280;14852;51.910;8.878;2023-03-29T04:40:53;99727.16;;;8.50;49.74
26823;BME280;14852;51.910;8.878;2023-03-29T04:43:25;99720.31;;;8.49;49.82
26823;BME280;14852;51.910;8.878;2023-03-29T04:46:02;99717.72;;;8.49;49.85
26823;BME280;14852;51.910;8.878;2023-03-29T04:48:54;99721.03;;;8.52;49.75
26823;BME280;14852;51.910;8.878;2023-03-29T04:51:29;99716.69;;;8.53;49.55
26823;BME280;14852;51.910;8.878;2023-03-29T04:53:57;99719.09;;;8.56;49.64
26823;BME280;14852;51.910;8.878;2023-03-29T04:56:23;99711.28;;;8.57;49.74
26823;BME280;14852;51.910;8.878;2023-03-29T04:59:22;99718.06;;;8.60;49.52
26823;BME280;14852;51.910;8.878;2023-03-29T05:01:47;99714.66;;;8.59;49.41
26823;BME280;14852;51.910;8.878;2023-03-29T05:04:13;99708.63;;;8.59;49.78
26823;BME280;14852;51.910;8.878;2023-03-29T05:06:50;99717.03;;;8.64;49.53
26823;BME280;14852;51.910;8.878;2023-03-29T05:09:16;99710.78;;;8.68;49.67
26823;BME280;14852;51.910;8.878;2023-03-29T05:11:50;99705.53;;;8.69;49.77
26823;BME280;14852;51.910;8.878;2023-03-29T05:14:19;99707.44;;;8.66;49.68
26823;BME280;14852;51.910;8.878;2023-03-29T05:16:45;99710.19;;;8.63;49.63
26823;BME280;14852;51.910;8.878;2023-03-29T05:19:11;99708.56;;;8.60;49.88
26823;BME280;14852;51.910;8.878;2023-03-29T05:21:42;99706.09;;;8.57;50.13
26823;BME280;14852;51.910;8.878;2023-03-29T05:24:11;99704.41;;;8.56;50.35
26823;BME280;14852;51.910;8.878;2023-03-29T05:26:49;99700.31;;;8.52;50.32
26823;BME280;14852;51.910;8.878;2023-03-29T05:29:17;99690.84;;;8.51;50.83
26823;BME280;14852;51.910;8.878;2023-03-29T05:31:47;99692.44;;;8.54;50.52
26823;BME280;14852;51.910;8.878;2023-03-29T05:34:14;99694.22;;;8.53;50.55
26823;BME280;14852;51.910;8.878;2023-03-29T05:36:45;99693.38;;;8.53;50.32
26823;BME280;14852;51.910;8.878;2023-03-29T05:39:11;99694.28;;;8.52;50.76
26823;BME280;14852;51.910;8.878;2023-03-29T05:41:39;99685.66;;;8.51;50.39
26823;BME280;14852;51.910;8.878;2023-03-29T05:44:32;99684.81;;;8.51;50.49
26823;BME280;14852;51.910;8.878;2023-03-29T05:47:07;99677.91;;;8.51;50.52
26823;BME280;14852;51.910;8.878;2023-03-29T05:49:33;99674.41;;;8.52;51.06
26823;BME280;14852;51.910;8.878;2023-03-29T05:52:07;99672.66;;;8.53;51.03
26823;BME280;14852;51.910;8.878;2023-03-29T05:54:35;99683.63;;;8.58;50.70
26823;BME280;14852;51.910;8.878;2023-03-29T05:57:02;99678.25;;;8.62;50.93
26823;BME280;14852;51.910;8.878;2023-03-29T05:59:28;99680.56;;;8.68;50.63
26823;BME280;14852;51.910;8.878;2023-03-29T06:01:54;99681.97;;;8.76;50.77
26823;BME280;14852;51.910;8.878;2023-03-29T06:04:20;99682.31;;;8.87;50.59
26823;BME280;14852;51.910;8.878;2023-03-29T06:07:01;99680.97;;;8.97;50.74
26823;BME280;14852;51.910;8.878;2023-03-29T06:09:29;99687.38;;;9.07;50.32
26823;BME280;14852;51.910;8.878;2023-03-29T06:12:00;99679.09;;;9.18;49.86
26823;BME280;14852;51.910;8.878;2023-03-29T06:14:39;99684.53;;;9.30;49.92
26823;BME280;14852;51.910;8.878;2023-03-29T06:17:16;99678.84;;;9.41;49.66
26823;BME280;14852;51.910;8.878;2023-03-29T06:23:32;99681.13;;;9.64;49.62
26823;BME280;14852;51.910;8.878;2023-03-29T06:25:58;99669.38;;;9.74;49.33
26823;BME280;14852;51.910;8.878;2023-03-29T06:28:25;99669.28;;;9.93;49.03
26823;BME280;14852;51.910;8.878;2023-03-29T06:30:51;99662.78;;;10.02;49.15
26823;BME280;14852;51.910;8.878;2023-03-29T06:33:21;99673.75;;;10.07;49.14
26823;BME280;14852;51.910;8.878;2023-03-29T06:36:02;99678.03;;;10.08;48.85
26823;BME280;14852;51.910;8.878;2023-03-29T06:38:29;99678.88;;;10.08;48.93
26823;BME280;14852;51.910;8.878;2023-03-29T06:41:09;99676.50;;;10.04;49.39
26823;BME280;14852;51.910;8.878;2023-03-29T06:44:07;99666.38;;;9.99;49.45
26823;BME280;14852;51.910;8.878;2023-03-29T06:46:47;99668.13;;;9.99;49.39
26823;BME280;14852;51.910;8.878;2023-03-29T06:49:13;99666.31;;;10.01;49.54
26823;BME280;14852;51.910;8.878;2023-03-29T06:52:03;99669.56;;;10.04;49.11
26823;BME280;14852;51.910;8.878;2023-03-29T06:54:28;99675.53;;;10.06;49.39
26823;BME280;14852;51.910;8.878;2023-03-29T06:57:00;99672.16;;;10.04;49.42
26823;BME280;14852;51.910;8.878;2023-03-29T06:59:28;99670.41;;;10.05;49.34
26823;BME280;14852;51.910;8.878;2023-03-29T07:01:57;99660.78;;;10.07;49.73
26823;BME280;14852;51.910;8.878;2023-03-29T07:04:42;99662.31;;;10.11;49.76
26823;BME280;14852;51.910;8.878;2023-03-29T07:07:15;99662.78;;;10.19;49.51
26823;BME280;14852;51.910;8.878;2023-03-29T07:10:08;99676.94;;;10.29;49.07
26823;BME280;14852;51.910;8.878;2023-03-29T07:12:54;99669.69;;;10.36;49.47
26823;BME280;14852;51.910;8.878;2023-03-29T07:15:20;99674.81;;;10.37;49.29
26823;BME280;14852;51.910;8.878;2023-03-29T07:18:13;99675.41;;;10.42;49.51
26823;BME280;14852;51.910;8.878;2023-03-29T07:20:39;99677.84;;;10.45;49.36
26823;BME280;14852;51.910;8.878;2023-03-29T07:23:08;99666.59;;;10.45;49.69
26823;BME280;14852;51.910;8.878;2023-03-29T07:25:35;99668.38;;;10.44;49.88
26823;BME280;14852;51.910;8.878;2023-03-29T07:28:01;99675.81;;;10.50;49.98
26823;BME280;14852;51.910;8.878;2023-03-29T07:30:29;99670.53;;;10.52;49.94
26823;BME280;14852;51.910;8.878;2023-03-29T07:33:06;99673.91;;;10.54;49.79
26823;BME280;14852;51.910;8.878;2023-03-29T07:35:38;99677.34;;;10.55;50.05
26823;BME280;14852;51.910;8.878;2023-03-29T07:38:07;99679.19;;;10.52;49.91
26823;BME280;14852;51.910;8.878;2023-03-29T07:40:34;99681.69;;;10.54;50.34
26823;BME280;14852;51.910;8.878;2023-03-29T07:43:37;99691.78;;;10.60;50.27
26823;BME280;14852;51.910;8.878;2023-03-29T07:46:04;99688.91;;;10.65;50.40
26823;BME280;14852;51.910;8.878;2023-03-29T07:48:32;99695.72;;;10.67;50.35
26823;BME280;14852;51.910;8.878;2023-03-29T07:51:03;99700.00;;;10.68;50.29
26823;BME280;14852;51.910;8.878;2023-03-29T07:53:40;99705.03;;;10.71;50.24
26823;BME280;14852;51.910;8.878;2023-03-29T07:56:16;99694.38;;;10.76;50.50
26823;BME280;14852;51.910;8.878;2023-03-29T07:58:50;99686.50;;;10.77;50.42
26823;BME280;14852;51.910;8.878;2023-03-29T08:01:17;99696.38;;;10.86;50.22
26823;BME280;14852;51.910;8.878;2023-03-29T08:04:09;99694.03;;;10.98;50.11
26823;BME280;14852;51.910;8.878;2023-03-29T08:06:58;99696.41;;;11.02;49.95
26823;BME280;14852;51.910;8.878;2023-03-29T08:09:33;99702.19;;;11.07;50.11
26823;BME280;14852;51.910;8.878;2023-03-29T08:11:59;99699.31;;;11.12;50.10
26823;BME280;14852;51.910;8.878;2023-03-29T08:14:32;99703.53;;;11.14;50.46
26823;BME280;14852;51.910;8.878;2023-03-29T08:17:04;99703.84;;;11.24;50.42
26823;BME280;14852;51.910;8.878;2023-03-29T08:19:34;99701.31;;;11.22;50.19
26823;BME280;14852;51.910;8.878;2023-03-29T08:22:05;99691.84;;;11.21;50.41
26823;BME280;14852;51.910;8.878;2023-03-29T08:24:53;99686.22;;;11.29;50.57
26823;BME280;14852;51.910;8.878;2023-03-29T08:27:24;99696.34;;;11.34;50.38
26823;BME280;14852;51.910;8.878;2023-03-29T08:29:49;99703.16;;;11.36;50.17
26823;BME280;14852;51.910;8.878;2023-03-29T08:32:15;99710.59;;;11.42;50.15
26823;BME280;14852;51.910;8.878;2023-03-29T08:34:42;99697.59;;;11.42;50.47
26823;BME280;14852;51.910;8.878;2023-03-29T08:37:18;99708.00;;;11.42;50.35
26823;BME280;14852;51.910;8.878;2023-03-29T08:39:46;99706.22;;;11.43;50.51
26823;BME280;14852;51.910;8.878;2023-03-29T08:42:54;99709.59;;;11.45;50.22
26823;BME280;14852;51.910;8.878;2023-03-29T08:45:49;99706.91;;;11.46;50.43
26823;BME280;14852;51.910;8.878;2023-03-29T08:48:28;99700.78;;;11.47;50.30
26823;BME280;14852;51.910;8.878;2023-03-29T08:51:21;99697.09;;;11.51;50.30
26823;BME280;14852;51.910;8.878;2023-03-29T08:57:10;99689.22;;;11.67;50.03
26823;BME280;14852;51.910;8.878;2023-03-29T08:59:40;99689.22;;;11.67;50.19
26823;BME280;14852;51.910;8.878;2023-03-29T09:02:22;99692.19;;;11.77;49.97
26823;BME280;14852;51.910;8.878;2023-03-29T09:05:25;99690.72;;;11.87;50.17
26823;BME280;14852;51.910;8.878;2023-03-29T09:07:57;99681.69;;;11.92;50.18
26823;BME280;14852;51.910;8.878;2023-03-29T09:10:34;99685.91;;;11.95;50.05
26823;BME280;14852;51.910;8.878;2023-03-29T09:28:12;99688.34;;;12.69;48.94
26823;BME280;14852;51.910;8.878;2023-03-29T09:31:14;99690.72;;;12.86;48.91
26823;BME280;14852;51.910;8.878;2023-03-29T09:33:57;99683.47;;;12.77;49.18
26823;BME280;14852;51.910;8.878;2023-03-29T09:36:51;99681.22;;;12.85;49.21
26823;BME280;14852;51.910;8.878;2023-03-29T09:39:19;99680.34;;;12.99;49.18
26823;BME280;14852;51.910;8.878;2023-03-29T09:42:09;99679.00;;;13.20;48.65
26823;BME280;14852;51.910;8.878;2023-03-29T09:44:56;99671.22;;;13.33;48.72
26823;BME280;14852;51.910;8.878;2023-03-29T09:47:48;99658.84;;;13.49;49.00
26823;BME280;14852;51.910;8.878;2023-03-29T09:50:32;99663.97;;;13.63;48.71
26823;BME280;14852;51.910;8.878;2023-03-29T09:53:08;99660.47;;;13.77;48.63
26823;BME280;14852;51.910;8.878;2023-03-29T09:55:36;99657.84;;;13.90;48.17
26823;BME280;14852;51.910;8.878;2023-03-29T09:58:21;99661.72;;;14.09;48.22
26823;BME280;14852;51.910;8.878;2023-03-29T10:00:50;99660.06;;;14.08;48.44
26823;BME280;14852;51.910;8.878;2023-03-29T10:03:21;99655.16;;;14.04;48.76
26823;BME280;14852;51.910;8.878;2023-03-29T10:05:58;99652.94;;;14.10;48.71
26823;BME280;14852;51.910;8.878;2023-03-29T10:09:00;99662.47;;;14.24;48.53
26823;BME280;14852;51.910;8.878;2023-03-29T10:11:45;99656.84;;;14.18;48.34
26823;BME280;14852;51.910;8.878;2023-03-29T10:14:30;99651.38;;;14.21;48.88
26823;BME280;14852;51.910;8.878;2023-03-29T10:17:03;99655.03;;;14.43;48.63
26823;BME280;14852;51.910;8.878;2023-03-29T10:19:34;99656.38;;;14.62;48.47
26823;BME280;14852;51.910;8.878;2023-03-29T10:22:22;99649.59;;;14.46;48.56
26823;BME280;14852;51.910;8.878;2023-03-29T10:24:50;99656.09;;;14.54;48.89
26823;BME280;14852;51.910;8.878;2023-03-29T10:27:40;99651.78;;;14.89;48.43
26823;BME280;14852;51.910;8.878;2023-03-29T10:30:11;99661.50;;;15.00;48.24
26823;BME280;14852;51.910;8.878;2023-03-29T10:32:43;99655.09;;;15.04;48.19
26823;BME280;14852;51.910;8.878;2023-03-29T10:35:38;99654.25;;;15.03;48.36
26823;BME280;14852;51.910;8.878;2023-03-29T10:38:11;99643.78;;;15.03;48.54
26823;BME280;14852;51.910;8.878;2023-03-29T10:41:09;99636.72;;;15.16;48.26
26823;BME280;14852;51.910;8.878;2023-03-29T10:43:46;99635.28;;;15.47;48.27
26823;BME280;14852;51.910;8.878;2023-03-29T10:46:32;99643.13;;;15.82;47.37
26823;BME280;14852;51.910;8.878;2023-03-29T10:49:13;99636.75;;;16.09;47.26
26823;BME280;14852;51.910;8.878;2023-03-29T10:51:47;99642.00;;;16.42;46.81
26823;BME280;14852;51.910;8.878;2023-03-29T10:54:20;99627.72;;;16.46;46.60
26823;BME280;14852;51.910;8.878;2023-03-29T10:57:02;99632.56;;;16.51;47.24
26823;BME280;14852;51.910;8.878;2023-03-29T10:59:50;99633.56;;;16.50;46.84
26823;BME280;14852;51.910;8.878;2023-03-29T11:03:18;99635.19;;;16.51;47.35
26823;BME280;14852;51.910;8.878;2023-03-29T11:08:57;99626.22;;;17.30;46.96
26823;BME280;14852;51.910;8.878;2023-03-29T11:14:36;99622.09;;;17.16;46.68
26823;BME280;14852;51.910;8.878;2023-03-29T11:17:19;99630.13;;;17.35;46.55
26823;BME280;14852;51.910;8.878;2023-03-29T11:20:11;99630.00;;;17.37;46.59
26823;BME280;14852;51.910;8.878;2023-03-29T11:26:40;99626.53;;;17.36;46.53
26823;BME280;14852;51.910;8.878;2023-03-29T11:32:23;99631.38;;;17.20;46.90
26823;BME280;14852;51.910;8.878;2023-03-29T11:38:09;99629.38;;;17.13;46.99
26823;BME280;14852;51.910;8.878;2023-03-29T11:41:00;99630.03;;;16.94;47.14
26823;BME280;14852;51.910;8.878;2023-03-29T11:43:49;99633.75;;;16.80;47.67
26823;BME280;14852;51.910;8.878;2023-03-29T11:46:34;99629.81;;;16.75;48.02
26823;BME280;14852;51.910;8.878;2023-03-29T11:49:11;99634.59;;;16.81;47.94
26823;BME280;14852;51.910;8.878;2023-03-29T11:52:07;99629.69;;;16.87;48.26
26823;BME280;14852;51.910;8.878;2023-03-29T11:55:03;99624.88;;;17.04;48.06
26823;BME280;14852;51.910;8.878;2023-03-29T11:57:56;99626.59;;;16.93;48.12
26823;BME280;14852;51.910;8.878;2023-03-29T12:00:36;99622.44;;;16.80;48.45
26823;BME280;14852;51.910;8.878;2023-03-29T12:03:37;99620.66;;;16.69;48.53
26823;BME280;14852;51.910;8.878;2023-03-29T12:06:14;99614.00;;;16.65;48.59
26823;BME280;14852;51.910;8.878;2023-03-29T12:14:20;99624.50;;;16.32;49.04
26823;BME280;14852;51.910;8.878;2023-03-29T12:16:58;99631.06;;;16.15;49.08
26823;BME280;14852;51.910;8.878;2023-03-29T12:19:33;99621.75;;;16.00;49.55
26823;BME280;14852;51.910;8.878;2023-03-29T12:22:00;99622.91;;;15.96;50.12
26823;BME280;14852;51.910;8.878;2023-03-29T12:24:30;99623.88;;;15.94;50.21
26823;BME280;14852;51.910;8.878;2023-03-29T12:27:39;99622.28;;;15.81;50.14
26823;BME280;14852;51.910;8.878;2023-03-29T12:30:28;99627.28;;;15.73;50.29
26823;BME280;14852;51.910;8.878;2023-03-29T12:33:12;99631.47;;;15.75;50.30
26823;BME280;14852;51.910;8.878;2023-03-29T12:36:33;99627.78;;;15.78;50.36
26823;BME280;14852;51.910;8.878;2023-03-29T12:39:27;99623.50;;;15.88;50.26
26823;BME280;14852;51.910;8.878;2023-03-29T12:42:20;99616.97;;;15.93;49.92
26823;BME280;14852;51.910;8.878;2023-03-29T12:45:43;99618.63;;;15.94;50.07
26823;BME280;14852;51.910;8.878;2023-03-29T12:48:21;99620.53;;;15.92;50.15
26823;BME280;14852;51.910;8.878;2023-03-29T12:51:18;99615.41;;;15.80;50.51
26823;BME280;14852;51.910;8.878;2023-03-29T12:53:52;99608.22;;;15.71;50.47
26823;BME280;14852;51.910;8.878;2023-03-29T12:56:22;99605.25;;;15.64;50.91
26823;BME280;14852;51.910;8.878;2023-03-29T13:01:38;99582.31;;;15.90;50.72
26823;BME280;14852;51.910;8.878;2023-03-29T13:04:19;99583.50;;;16.08;50.46
26823;BME280;14852;51.910;8.878;2023-03-29T13:12:10;99575.19;;;16.03;50.47
26823;BME280;14852;51.910;8.878;2023-03-29T13:14:43;99570.16;;;16.11;50.45
26823;BME280;14852;51.910;8.878;2023-03-29T13:17:25;99566.34;;;16.04;50.41
26823;BME280;14852;51.910;8.878;2023-03-29T13:21:39;99567.16;;;15.82;50.52
26823;BME280;14852;51.910;8.878;2023-03-29T13:24:08;99558.47;;;15.71;50.89
26823;BME280;14852;51.910;8.878;2023-03-29T13:29:42;99555.28;;;15.89;50.40
26823;BME280;14852;51.910;8.878;2023-03-29T13:36:00;99567.16;;;16.27;50.08
26823;BME280;14852;51.910;8.878;2023-03-29T13:38:28;99560.13;;;16.27;50.15
26823;BME280;14852;51.910;8.878;2023-03-29T13:41:01;99559.06;;;16.30;50.47
26823;BME280;14852;51.910;8.878;2023-03-29T13:46:35;99552.84;;;16.42;49.84
26823;BME280;14852;51.910;8.878;2023-03-29T13:49:24;99548.53;;;16.52;50.40
26823;BME280;14852;51.910;8.878;2023-03-29T13:52:17;99539.22;;;16.71;50.18
26823;BME280;14852;51.910;8.878;2023-03-29T13:54:53;99540.25;;;16.79;49.71
26823;BME280;14852;51.910;8.878;2023-03-29T13:57:24;99534.00;;;16.91;49.91
26823;BME280;14852;51.910;8.878;2023-03-29T14:00:03;99529.53;;;17.03;50.06
26823;BME280;14852;51.910;8.878;2023-03-29T14:02:54;99520.31;;;17.09;49.50
26823;BME280;14852;51.910;8.878;2023-03-29T14:05:29;99518.03;;;17.15;49.67
26823;BME280;14852;51.910;8.878;2023-03-29T14:08:13;99514.31;;;17.18;49.48
26823;BME280;14852;51.910;8.878;2023-03-29T14:10:43;99515.28;;;17.17;49.56
26823;BME280;14852;51.910;8.878;2023-03-29T14:13:15;99513.09;;;17.22;50.01
26823;BME280;14852;51.910;8.878;2023-03-29T14:18:18;99510.66;;;17.30;49.93
26823;BME280;14852;51.910;8.878;2023-03-29T14:20:47;99514.44;;;17.37;49.87
26823;BME280;14852;51.910;8.878;2023-03-29T14:23:23;99507.00;;;17.42;49.71
26823;BME280;14852;51.910;8.878;2023-03-29T14:25:50;99509.06;;;17.38;49.39
26823;BME280;14852;51.910;8.878;2023-03-29T14:28:27;99502.72;;;17.41;50.04
26823;BME280;14852;51.910;8.878;2023-03-29T14:30:54;99499.38;;;17.39;49.92
26823;BME280;14852;51.910;8.878;2023-03-29T14:33:31;99495.94;;;17.38;49.81
26823;BME280;14852;51.910;8.878;2023-03-29T14:36:03;99493.03;;;17.21;49.99
26823;BME280;14852;51.910;8.878;2023-03-29T14:38:30;99494.78;;;17.11;50.41
26823;BME280;14852;51.910;8.878;2023-03-29T14:41:00;99492.16;;;17.11;49.99
26823;BME280;14852;51.910;8.878;2023-03-29T14:43:28;99491.31;;;17.10;49.88
26823;BME280;14852;51.910;8.878;2023-03-29T14:45:57;99483.72;;;17.07;50.21
26823;BME280;14852;51.910;8.878;2023-03-29T14:48:25;99481.00;;;16.97;50.29
26823;BME280;14852;51.910;8.878;2023-03-29T14:50:52;99475.91;;;16.96;50.00
26823;BME280;14852;51.910;8.878;2023-03-29T14:53:21;99470.50;;;16.97;50.38
26823;BME280;14852;51.910;8.878;2023-03-29T14:55:50;99475.91;;;16.96;49.66
26823;BME280;14852;51.910;8.878;2023-03-29T14:58:30;99476.97;;;16.93;50.42
26823;BME280;14852;51.910;8.878;2023-03-29T15:00:57;99468.53;;;16.90;50.51
26823;BME280;14852;51.910;8.878;2023-03-29T15:03:28;99467.25;;;16.84;50.50
26823;BME280;14852;51.910;8.878;2023-03-29T15:05:58;99461.53;;;16.79;50.67
26823;BME280;14852;51.910;8.878;2023-03-29T15:08:35;99455.81;;;16.74;50.58
26823;BME280;14852;51.910;8.878;2023-03-29T15:13:42;99451.69;;;16.72;50.78